Airfield :
LOGIN :

Register | Disclaimer

   EN    FR    IT 

 










Legend :    VFR   Marginal VFR   IFR   Intensive IFR   Very Intensive IFR
Visi :
Ceiling :
>= 8 km
>= 3000ft
5 to 8 km
1000 to 3000 ft
1500m to 5 km
500 to 1000 ft
800 to 1500m
200 to 500 ft
< 800m
< 200 ft
Symbols :   Thunderstorms  Fog  Heavy snow  Heavy precipitations  Wind > 20 kt
SIGMETs :     Misc.  Thunderstorms  Icing  Turbulence  Mountain Waves  Volcanic Ashes







- Airport Elevation : 313 ft
- Download approach charts


LFQA - Reims-Prunay

CURRENT METAR :
  • 241230Z AUTO 18012KT CAVOK 16/11 Q0999

EXPIRED METARs :
  • 241200Z AUTO 20016G27KT 9999 -RA FEW037/// BKN064/// OVC074/// ///CB 14/11 Q1000
  • 241130Z AUTO 20015KT 170V230 9999 ///TCU 19/09 Q0999
  • 241100Z AUTO 21014G25KT CAVOK 20/08 Q0999
  • 241030Z AUTO 19021KT CAVOK 20/08 Q0998
  • 241000Z AUTO 18020G30KT 160V220 CAVOK 21/09 Q0998

TAF N/A
No reported NOTAMs for that airfield.
1 SIGMET reported for the Paris FIR (LFFF) :
 
Severe turbulence
LFFF SIGMET 4 VALID 241100/241500 LFPW
LFFF PARIS FIR/UIR SEV TURB FCST WI N4900 E00445 - N4830 E00530 - N4730 E00415 - N4630 E00445 - N4630 E00330 - N4900 E00415 - N4900 E00445 SFC/FL100 STNR INTSF=



MET'MAP, your aeronautical weather chart ! - Copyright ORBIFLY December 2007 - Disclaimer

ORBIFLY MET'MAP TEAM :

Programming & Development : Alexandra Zaïnal
Concept & Development : Baudouin d'Aumeries
Co-Development & Prog : Marc-Olivier Méhu
Technical & hardware support : Manuel Goepfert

Contact : metmap@orbifly.com




SOURCES & CREDITS :

   NOAA